• Join FlightAware (Why Join?)
  • Login
  • US Flag 
05:38AM EST


 

Airport Tracker/Info


-or-


 

Live Flight TrackerFlight Track Log ✈ SWA472 ✈ 07-Oct-2013 ✈ KLAX - KABQ

Flight Track Log - Related Links

Times and Time Zones

All times are in EDT time to prevent confusion due to time zone crossing. See the SWA472 flight status page for this flight to view local times or setup timezone preferences in your user account.

Time Position Orientation Groundspeed Altitude Reporting Facility
EDT Latitude Longitude Course Direction KTS MPH feet Rate Location/Type
10:13AM 33.9470 -118.4310 261° West 163 188 800  Level FlightAware
10:13AM 33.9450 -118.4490 262° West 179 206 1,600 1,860 Climbing FlightAware
10:14AM 33.9420 -118.4760 262° West 228 262 2,200 1,800 Climbing FlightAware
10:14AM 33.9420 -118.5030 270° West 253 291 2,900 3,000 Climbing FlightAware
10:14AM 33.9410 -118.5310 268° West 256 295 4,200 3,360 Climbing FlightAware
10:14AM 33.9390 -118.5420 258° West 260 299 4,600 3,000 Climbing FlightAware
10:15AM 33.9310 -118.5570 237° Southwest 264 304 5,200 3,000 Climbing FlightAware
10:15AM 33.9230 -118.5640 216° Southwest 266 306 5,600 3,420 Climbing FlightAware
10:15AM 33.9030 -118.5800 214° Southwest 276 318 6,800 4,080 Climbing FlightAware
10:15AM 33.8770 -118.6010 214° Southwest 279 321 8,600 4,200 Climbing FlightAware
10:16AM 33.8560 -118.6180 214° Southwest 283 326 9,900 3,600 Climbing FlightAware
10:16AM 33.8150 -118.6510 214° Southwest 295 339 12,000 2,640 Climbing FlightAware
10:17AM 33.7770 -118.6780 211° Southwest 275 316 13,000 900 Climbing FlightAware
10:18AM 33.7370 -118.6870 191° South 272 313 13,000  Level FlightAware
10:18AM 33.7250 -118.6830 165° South 274 315 13,000  Level FlightAware
10:18AM 33.7110 -118.6720 147° Southeast 277 319 13,000  Level FlightAware
10:18AM 33.6740 -118.6360 141° Southeast 277 319 13,000  Level FlightAware
10:19AM 33.6490 -118.6040 133° Southeast 282 325 13,000  Level FlightAware
10:19AM 33.6440 -118.5870 109° East 287 330 13,000 240 Level FlightAware
10:19AM 33.6430 -118.5670 93° East 293 337 13,100 2,520 Climbing FlightAware
10:20AM 33.6440 -118.5040 89° East 299 344 15,100 3,180 Climbing FlightAware
10:21AM 33.6440 -118.4480 90° East 303 349 17,000 3,060 Climbing FlightAware
10:21AM 33.6440 -118.3820 90° East 318 366 18,800 2,220 Climbing FlightAware
10:22AM 33.6440 -118.3250 90° East 345 397 19,800 1,560 Climbing FlightAware
10:22AM 33.6440 -118.2320 90° East 392 451 20,900 2,160 Climbing FlightAware
10:23AM 33.6440 -118.1530 90° East 401 461 22,500 1,920 Climbing FlightAware
10:24AM 33.6440 -118.0860 90° East 405 466 23,000 1,020 Climbing FlightAware
10:24AM 33.6440 -118.0040 90° East 409 471 23,700 1,800 Climbing FlightAware
10:25AM 33.6440 -117.9180 90° East 420 483 25,200 2,280 Climbing FlightAware
10:25AM 33.6440 -117.8410 90° East 429 494 26,400 2,100 Climbing FlightAware
10:26AM 33.6430 -117.7590 91° East 438 504 27,600 1,920 Climbing FlightAware
10:27AM 33.6430 -117.6620 90° East 448 516 28,800 1,680 Climbing FlightAware
10:27AM 33.6430 -117.5760 90° East 456 525 29,700 1,560 Climbing FlightAware
10:28AM 33.6420 -117.4780 91° East 463 533 30,800 1,560 Climbing FlightAware
10:28AM 33.6420 -117.3770 90° East 470 541 31,800 1,560 Climbing FlightAware
10:29AM 33.6410 -117.2830 91° East 475 547 32,700 1,680 Climbing FlightAware
10:30AM 33.6410 -117.2040 90° East 472 543 33,700 1,680 Climbing FlightAware
10:30AM 33.6450 -117.1080 87° East 482 555 34,600 1,200 Climbing FlightAware
10:31AM 33.6560 -117.0240 81° East 491 565 35,100 1,260 Climbing FlightAware
10:31AM 33.6710 -116.9180 80° East 492 566 36,100 1,500 Climbing FlightAware
10:32AM 33.6820 -116.8300 81° East 491 565 36,900 1,320 Climbing FlightAware
10:32AM 33.6950 -116.7310 81° East 490 564 37,700 1,380 Climbing FlightAware
10:33AM 33.7070 -116.6340 82° East 488 562 38,600 1,140 Climbing FlightAware
10:34AM 33.7180 -116.5500 81° East 489 563 39,000 300 Climbing FlightAware
10:34AM 33.7300 -116.4530 82° East 488 562 39,000  Level FlightAware
10:35AM 33.7400 -116.3640 82° East 489 563 39,000  Level FlightAware
10:35AM 33.7530 -116.2600 81° East 490 564 39,000  Level FlightAware
10:36AM 33.7650 -116.1670 81° East 491 565 39,000  Level FlightAware
10:37AM 33.7760 -116.0750 82° East 491 565 39,000  Level FlightAware
10:37AM 33.7860 -115.9930 82° East 489 563 39,000  Level FlightAware
10:38AM 33.7980 -115.8980 81° East 490 564 39,000  Level FlightAware
10:38AM 33.8090 -115.8070 82° East 488 562 39,000  Level FlightAware
10:39AM 33.8200 -115.7110 82° East 489 563 39,000  Level FlightAware
10:40AM 33.8330 -115.6040 82° East 486 559 39,000  Level FlightAware
10:40AM 33.8430 -115.5220 82° East 485 558 39,000  Level FlightAware
10:41AM 33.8550 -115.4170 82° East 484 557 39,000  Level FlightAware
10:41AM 33.8640 -115.3360 82° East 483 556 39,000  Level FlightAware
10:42AM 33.8750 -115.2430 82° East 483 556 39,000  Level FlightAware
10:42AM 33.8870 -115.1370 82° East 482 555 39,000  Level FlightAware
10:43AM 33.8970 -115.0550 82° East 481 554 39,000  Level FlightAware
10:44AM 33.9080 -114.9520 83° East 480 552 39,000  Level FlightAware
10:44AM 33.9180 -114.8710 82° East 479 551 39,000  Level FlightAware
10:45AM 33.9280 -114.7800 82° East 478 550 39,000  Level FlightAware
10:45AM 33.9380 -114.6860 83° East 478 550 39,000  Level FlightAware
10:46AM 33.9480 -114.5960 82° East 477 549 39,000  Level FlightAware
10:47AM 33.9600 -114.4910 82° East 479 551 39,000  Level FlightAware
10:47AM 33.9680 -114.4120 83° East 479 551 39,000  Level FlightAware
10:48AM 33.9770 -114.3330 82° East 480 552 39,000  Level FlightAware
10:48AM 33.9870 -114.2410 83° East 480 552 39,000  Level FlightAware
10:49AM 33.9970 -114.1460 83° East 481 554 39,000  Level FlightAware
10:49AM 34.0050 -114.0710 83° East 481 554 39,000  Level FlightAware
10:50AM 34.0160 -113.9630 83° East 482 555 39,000  Level FlightAware
10:50AM 34.0260 -113.8670 83° East 482 555 39,000  Level FlightAware
10:51AM 34.0340 -113.7900 83° East 482 555 39,000  Level FlightAware
10:52AM 34.0450 -113.6840 83° East 482 555 39,000  Level FlightAware
10:52AM 34.0550 -113.5870 83° East 482 555 39,000  Level FlightAware
10:53AM 34.0640 -113.4940 83° East 480 552 39,000  Level FlightAware
10:53AM 34.0740 -113.3990 83° East 479 551 39,000  Level FlightAware
10:54AM 34.0830 -113.3090 83° East 478 550 39,000  Level FlightAware
10:55AM 34.0920 -113.2140 83° East 477 549 39,000  Level FlightAware
10:55AM 34.1010 -113.1240 83° East 476 548 39,000  Level FlightAware
10:56AM 34.1100 -113.0320 83° East 475 547 39,000  Level FlightAware
10:56AM 34.1190 -112.9370 83° East 475 547 39,000  Level FlightAware
10:57AM 34.1270 -112.8590 83° East 474 545 39,000  Level FlightAware
10:57AM 34.1360 -112.7540 84° East 473 544 39,000  Level FlightAware
10:58AM 34.1450 -112.6660 83° East 474 545 39,000  Level FlightAware
10:59AM 34.1530 -112.5730 84° East 474 545 39,000  Level FlightAware
10:59AM 34.1620 -112.4860 83° East 475 547 39,000  Level FlightAware
11:00AM 34.1700 -112.3910 84° East 474 545 39,000  Level FlightAware
11:00AM 34.1800 -112.2840 84° East 475 547 39,000  Level FlightAware
11:01AM 34.1880 -112.2000 83° East 475 547 39,000  Level FlightAware
11:02AM 34.1960 -112.1020 84° East 477 549 39,000  Level FlightAware
11:02AM 34.2040 -112.0070 84° East 477 549 39,000  Level FlightAware
11:03AM 34.2120 -111.9200 84° East 478 550 39,000  Level FlightAware
11:03AM 34.2200 -111.8270 84° East 478 550 39,000  Level FlightAware
11:04AM 34.2280 -111.7450 83° East 478 550 39,000  Level FlightAware
11:04AM 34.2360 -111.6430 85° East 478 550 39,000  Level FlightAware
11:05AM 34.2450 -111.5450 84° East 478 550 39,000  Level FlightAware
11:06AM 34.2520 -111.4630 84° East 478 550 39,000  Level FlightAware
11:06AM 34.2590 -111.3730 85° East 479 551 39,000  Level FlightAware
11:07AM 34.2680 -111.2700 84° East 479 551 39,000  Level FlightAware
11:07AM 34.2750 -111.1800 85° East 479 551 39,000  Level FlightAware
11:08AM 34.2830 -111.0860 84° East 478 550 39,000  Level FlightAware
11:09AM 34.2910 -110.9850 84° East 478 550 39,000  Level FlightAware
11:09AM 34.2980 -110.8880 85° East 478 550 39,000  Level FlightAware
11:10AM 34.3050 -110.8020 84° East 477 549 39,000  Level FlightAware
11:10AM 34.3130 -110.7070 84° East 477 549 39,000  Level FlightAware
11:11AM 34.3160 -110.6660 85° East 476 548 39,000  Level FlightAware
11:12AM 34.3280 -110.5070 85° East 475 547 39,000  Level FlightAware
11:12AM 34.3350 -110.4180 85° East 473 544 39,000  Level FlightAware
11:13AM 34.3420 -110.3260 85° East 473 544 39,000  Level FlightAware
11:13AM 34.3490 -110.2270 85° East 472 543 39,000  Level FlightAware
11:14AM 34.3560 -110.1340 85° East 470 541 39,000  Level FlightAware
11:15AM 34.3630 -110.0390 85° East 469 540 39,000  Level FlightAware
11:15AM 34.3690 -109.9530 85° East 469 540 39,000  Level FlightAware
11:16AM 34.3750 -109.8730 85° East 469 540 39,000  Level FlightAware
11:16AM 34.3830 -109.7610 85° East 466 536 39,000  Level FlightAware
11:17AM 34.3890 -109.6640 86° East 465 535 39,000  Level FlightAware
11:17AM 34.3950 -109.5770 85° East 465 535 39,000  Level FlightAware
11:18AM 34.4010 -109.4890 85° East 466 536 39,000  Level FlightAware
11:19AM 34.4070 -109.3950 86° East 466 536 39,000  Level FlightAware
11:19AM 34.4130 -109.3010 86° East 466 536 39,000 -600 Level FlightAware
11:20AM 34.4200 -109.2050 85° East 468 539 38,300 -720 Descending FlightAware
11:21AM 34.4270 -109.1030 85° East 470 541 38,100 -180 Descending FlightAware
11:21AM 34.4320 -109.0250 86° East 470 541 38,100  Level FlightAware
11:22AM 34.4380 -108.9450 85° East 470 541 38,100  Level FlightAware
11:22AM 34.4440 -108.8650 85° East 470 541 38,100  Level FlightAware
11:23AM 34.4500 -108.7840 85° East 470 541 38,100  Level FlightAware
11:24AM 34.4560 -108.7020 85° East 470 541 38,100  Level FlightAware
11:24AM 34.4620 -108.6210 85° East 470 541 38,100  Level FlightAware
11:25AM 34.4670 -108.5430 86° East 470 541 38,100  Level FlightAware
11:25AM 34.4730 -108.4600 85° East 470 541 38,100  Level FlightAware
11:26AM 34.4790 -108.3800 85° East 470 541 38,100  Level FlightAware
11:27AM 34.4850 -108.2970 85° East 470 541 38,100  Level FlightAware
11:27AM 34.4910 -108.2170 85° East 470 541 38,100  Level FlightAware
11:28AM 34.4960 -108.1410 85° East 470 541 38,100  Level FlightAware
11:28AM 34.5020 -108.0580 85° East 470 541 38,100  Level FlightAware
11:29AM 34.5080 -107.9780 85° East 470 541 38,100  Level FlightAware
11:30AM 34.5140 -107.8950 85° East 470 541 38,100 -5,280 Level FlightAware
11:33AM 34.8290 -107.3270 56° Northeast 354 407 15,700 -5,400 Descending FlightAware
11:34AM 34.8550 -107.2650 63° Northeast 331 381 15,100 -540 Descending FlightAware
11:34AM 34.8770 -107.2130 63° Northeast 331 381 15,100 -1,500 Level FlightAware
11:35AM 34.8940 -107.1620 68° East 319 367 13,600 -1,500 Descending FlightAware
11:36AM 34.9040 -107.0860 81° East 296 341 13,300 -2,160 Descending FlightAware
11:36AM 34.9120 -107.0230 81° East 287 330 10,600 -2,520 Descending FlightAware
11:37AM 34.9180 -106.9770 81° East 284 327 10,500 -1,620 Descending FlightAware
11:37AM 34.9240 -106.9260 82° East 252 290 8,900 -2,280 Descending FlightAware
11:38AM 34.9280 -106.8910 82° East 238 274 8,400 -660 Descending FlightAware
11:38AM 34.9330 -106.8430 83° East 238 274 8,200 -240 Descending FlightAware
11:39AM 34.9360 -106.8160 82° East 238 274 8,200  Level FlightAware
11:39AM 34.9390 -106.7890 82° East 238 274 8,200  Level FlightAware
11:40AM 34.9430 -106.7620 80° East 238 274 8,200 -1,320 Level FlightAware
11:40AM 34.9520 -106.7170 76° East 184 212 7,000 -1,140 Descending FlightAware
11:41AM 34.9664 -106.6975 76° East 185 213 6,900 -540 Descending Albuquerque Center
11:41AM 34.9803 -106.6811 44° Northeast 156 180 6,500 -1,020 Descending Albuquerque Center
11:42AM 35.0033 -106.6544 43° Northeast 147 169 5,900 -660 Descending Albuquerque Center
11:43AM 35.0261 -106.6247 47° Northeast 151 174 5,400 -540 Descending Albuquerque Center
11:45AM 35.0333 -106.6000 39° Northeast  Level FlightAware Approximate